sensor_id;sensor_type;location;lat;lon;timestamp;P1;durP1;ratioP1;P2;durP2;ratioP2
43706;SDS011;61348;53.392;-6.248;2024-01-27T00:01:47;6.55;;;1.52;;
43706;SDS011;61348;53.392;-6.248;2024-01-27T00:04:14;6.43;;;1.13;;
43706;SDS011;61348;53.392;-6.248;2024-01-27T00:06:41;10.20;;;2.15;;
43706;SDS011;61348;53.392;-6.248;2024-01-27T00:09:09;11.77;;;1.23;;
43706;SDS011;61348;53.392;-6.248;2024-01-27T00:11:36;9.45;;;2.10;;
43706;SDS011;61348;53.392;-6.248;2024-01-27T00:14:03;17.95;;;2.72;;
43706;SDS011;61348;53.392;-6.248;2024-01-27T00:16:31;6.60;;;1.40;;
43706;SDS011;61348;53.392;-6.248;2024-01-27T00:18:58;8.50;;;1.88;;
43706;SDS011;61348;53.392;-6.248;2024-01-27T00:21:26;8.68;;;1.27;;
43706;SDS011;61348;53.392;-6.248;2024-01-27T00:23:53;4.38;;;1.27;;
43706;SDS011;61348;53.392;-6.248;2024-01-27T00:26:20;7.40;;;1.23;;
43706;SDS011;61348;53.392;-6.248;2024-01-27T00:28:48;11.90;;;2.63;;
43706;SDS011;61348;53.392;-6.248;2024-01-27T00:31:15;6.43;;;1.77;;
43706;SDS011;61348;53.392;-6.248;2024-01-27T00:33:42;4.85;;;1.02;;
43706;SDS011;61348;53.392;-6.248;2024-01-27T00:36:10;4.47;;;1.73;;
43706;SDS011;61348;53.392;-6.248;2024-01-27T00:38:37;8.27;;;1.70;;
43706;SDS011;61348;53.392;-6.248;2024-01-27T00:41:05;10.63;;;1.98;;
43706;SDS011;61348;53.392;-6.248;2024-01-27T00:43:33;7.05;;;1.30;;
43706;SDS011;61348;53.392;-6.248;2024-01-27T00:46:00;10.73;;;1.63;;
43706;SDS011;61348;53.392;-6.248;2024-01-27T00:48:27;8.43;;;1.42;;
43706;SDS011;61348;53.392;-6.248;2024-01-27T00:50:55;10.23;;;2.38;;
43706;SDS011;61348;53.392;-6.248;2024-01-27T00:53:22;6.32;;;1.25;;
43706;SDS011;61348;53.392;-6.248;2024-01-27T00:55:50;11.07;;;2.70;;
43706;SDS011;61348;53.392;-6.248;2024-01-27T00:58:17;10.45;;;1.35;;
43706;SDS011;61348;53.392;-6.248;2024-01-27T01:00:44;7.75;;;1.20;;
43706;SDS011;61348;53.392;-6.248;2024-01-27T01:03:12;8.23;;;1.45;;
43706;SDS011;61348;53.392;-6.248;2024-01-27T01:05:39;6.95;;;0.93;;
43706;SDS011;61348;53.392;-6.248;2024-01-27T01:08:07;10.57;;;2.13;;
43706;SDS011;61348;53.392;-6.248;2024-01-27T01:10:34;6.45;;;2.15;;
43706;SDS011;61348;53.392;-6.248;2024-01-27T01:13:02;10.43;;;1.45;;
43706;SDS011;61348;53.392;-6.248;2024-01-27T01:15:29;6.85;;;1.75;;
43706;SDS011;61348;53.392;-6.248;2024-01-27T01:17:57;5.82;;;1.17;;
43706;SDS011;61348;53.392;-6.248;2024-01-27T01:20:25;6.60;;;1.30;;
43706;SDS011;61348;53.392;-6.248;2024-01-27T01:22:53;8.35;;;1.50;;
43706;SDS011;61348;53.392;-6.248;2024-01-27T01:25:20;8.40;;;1.25;;
43706;SDS011;61348;53.392;-6.248;2024-01-27T01:27:48;10.73;;;1.80;;
43706;SDS011;61348;53.392;-6.248;2024-01-27T01:30:16;5.55;;;1.15;;
43706;SDS011;61348;53.392;-6.248;2024-01-27T01:32:44;5.82;;;1.80;;
43706;SDS011;61348;53.392;-6.248;2024-01-27T01:35:11;4.78;;;0.80;;
43706;SDS011;61348;53.392;-6.248;2024-01-27T01:37:38;4.20;;;1.30;;
43706;SDS011;61348;53.392;-6.248;2024-01-27T01:40:06;6.32;;;1.27;;
43706;SDS011;61348;53.392;-6.248;2024-01-27T01:42:34;5.45;;;1.13;;
43706;SDS011;61348;53.392;-6.248;2024-01-27T01:45:01;4.22;;;1.35;;
43706;SDS011;61348;53.392;-6.248;2024-01-27T01:47:29;7.07;;;1.13;;
43706;SDS011;61348;53.392;-6.248;2024-01-27T01:49:56;8.30;;;0.70;;
43706;SDS011;61348;53.392;-6.248;2024-01-27T01:52:23;9.75;;;1.23;;
43706;SDS011;61348;53.392;-6.248;2024-01-27T01:54:51;8.02;;;1.50;;
43706;SDS011;61348;53.392;-6.248;2024-01-27T01:57:18;3.58;;;0.70;;
43706;SDS011;61348;53.392;-6.248;2024-01-27T01:59:46;3.95;;;1.00;;
43706;SDS011;61348;53.392;-6.248;2024-01-27T02:02:14;3.97;;;1.05;;
43706;SDS011;61348;53.392;-6.248;2024-01-27T02:04:43;7.90;;;1.00;;
43706;SDS011;61348;53.392;-6.248;2024-01-27T02:07:13;4.07;;;1.00;;
43706;SDS011;61348;53.392;-6.248;2024-01-27T02:09:41;7.25;;;1.10;;
43706;SDS011;61348;53.392;-6.248;2024-01-27T02:12:08;7.80;;;3.55;;
43706;SDS011;61348;53.392;-6.248;2024-01-27T02:14:36;13.75;;;2.42;;
43706;SDS011;61348;53.392;-6.248;2024-01-27T02:17:03;8.93;;;2.35;;
43706;SDS011;61348;53.392;-6.248;2024-01-27T02:19:31;6.13;;;1.00;;
43706;SDS011;61348;53.392;-6.248;2024-01-27T02:21:59;7.22;;;1.10;;
43706;SDS011;61348;53.392;-6.248;2024-01-27T02:24:26;3.38;;;0.90;;
43706;SDS011;61348;53.392;-6.248;2024-01-27T02:26:55;6.57;;;0.90;;
43706;SDS011;61348;53.392;-6.248;2024-01-27T02:29:23;4.53;;;0.90;;
43706;SDS011;61348;53.392;-6.248;2024-01-27T02:31:50;14.00;;;1.63;;
43706;SDS011;61348;53.392;-6.248;2024-01-27T02:34:17;7.80;;;0.98;;
43706;SDS011;61348;53.392;-6.248;2024-01-27T02:36:45;8.27;;;2.55;;
43706;SDS011;61348;53.392;-6.248;2024-01-27T02:39:12;3.95;;;1.10;;
43706;SDS011;61348;53.392;-6.248;2024-01-27T02:41:39;9.85;;;1.10;;
43706;SDS011;61348;53.392;-6.248;2024-01-27T02:44:07;2.97;;;0.70;;
43706;SDS011;61348;53.392;-6.248;2024-01-27T02:46:34;8.90;;;1.17;;
43706;SDS011;61348;53.392;-6.248;2024-01-27T02:49:02;7.68;;;1.08;;
43706;SDS011;61348;53.392;-6.248;2024-01-27T02:51:29;4.32;;;1.05;;
43706;SDS011;61348;53.392;-6.248;2024-01-27T02:53:56;9.25;;;1.30;;
43706;SDS011;61348;53.392;-6.248;2024-01-27T02:56:24;5.25;;;1.52;;
43706;SDS011;61348;53.392;-6.248;2024-01-27T02:58:51;6.85;;;0.73;;
43706;SDS011;61348;53.392;-6.248;2024-01-27T03:01:18;4.35;;;0.80;;
43706;SDS011;61348;53.392;-6.248;2024-01-27T03:03:46;5.57;;;0.88;;
43706;SDS011;61348;53.392;-6.248;2024-01-27T03:06:13;5.03;;;2.10;;
43706;SDS011;61348;53.392;-6.248;2024-01-27T03:08:41;7.10;;;0.80;;
43706;SDS011;61348;53.392;-6.248;2024-01-27T03:11:08;3.22;;;1.75;;
43706;SDS011;61348;53.392;-6.248;2024-01-27T03:13:35;11.60;;;1.10;;
43706;SDS011;61348;53.392;-6.248;2024-01-27T03:16:03;3.53;;;0.85;;
43706;SDS011;61348;53.392;-6.248;2024-01-27T03:18:36;5.07;;;0.90;;
43706;SDS011;61348;53.392;-6.248;2024-01-27T03:21:05;2.10;;;0.80;;
43706;SDS011;61348;53.392;-6.248;2024-01-27T03:23:34;4.28;;;0.93;;
43706;SDS011;61348;53.392;-6.248;2024-01-27T03:26:03;9.07;;;1.00;;
43706;SDS011;61348;53.392;-6.248;2024-01-27T03:28:33;7.25;;;1.45;;
43706;SDS011;61348;53.392;-6.248;2024-01-27T03:31:00;4.68;;;1.02;;
43706;SDS011;61348;53.392;-6.248;2024-01-27T03:33:28;5.90;;;1.25;;
43706;SDS011;61348;53.392;-6.248;2024-01-27T03:35:58;3.75;;;1.33;;
43706;SDS011;61348;53.392;-6.248;2024-01-27T03:38:26;6.03;;;1.52;;
43706;SDS011;61348;53.392;-6.248;2024-01-27T03:40:53;9.80;;;1.27;;
43706;SDS011;61348;53.392;-6.248;2024-01-27T03:43:20;14.43;;;1.00;;
43706;SDS011;61348;53.392;-6.248;2024-01-27T03:45:48;6.25;;;1.10;;
43706;SDS011;61348;53.392;-6.248;2024-01-27T03:48:15;9.02;;;1.33;;
43706;SDS011;61348;53.392;-6.248;2024-01-27T03:50:42;3.03;;;0.80;;
43706;SDS011;61348;53.392;-6.248;2024-01-27T03:53:10;3.55;;;0.70;;
43706;SDS011;61348;53.392;-6.248;2024-01-27T03:55:37;1.92;;;0.68;;
43706;SDS011;61348;53.392;-6.248;2024-01-27T03:58:04;2.90;;;1.23;;
43706;SDS011;61348;53.392;-6.248;2024-01-27T04:00:32;10.98;;;1.00;;
43706;SDS011;61348;53.392;-6.248;2024-01-27T04:03:00;9.40;;;0.90;;
43706;SDS011;61348;53.392;-6.248;2024-01-27T04:05:28;3.72;;;0.68;;
43706;SDS011;61348;53.392;-6.248;2024-01-27T04:07:57;7.72;;;0.75;;
43706;SDS011;61348;53.392;-6.248;2024-01-27T04:10:24;9.30;;;1.00;;
43706;SDS011;61348;53.392;-6.248;2024-01-27T04:12:52;4.18;;;0.80;;
43706;SDS011;61348;53.392;-6.248;2024-01-27T04:15:19;4.55;;;0.63;;
43706;SDS011;61348;53.392;-6.248;2024-01-27T04:17:47;3.75;;;1.30;;
43706;SDS011;61348;53.392;-6.248;2024-01-27T04:20:14;7.63;;;0.55;;
43706;SDS011;61348;53.392;-6.248;2024-01-27T04:22:41;5.55;;;1.52;;
43706;SDS011;61348;53.392;-6.248;2024-01-27T04:25:09;8.07;;;0.52;;
43706;SDS011;61348;53.392;-6.248;2024-01-27T04:27:39;4.57;;;0.70;;
43706;SDS011;61348;53.392;-6.248;2024-01-27T04:30:10;3.33;;;0.68;;
43706;SDS011;61348;53.392;-6.248;2024-01-27T04:32:38;5.68;;;0.40;;
43706;SDS011;61348;53.392;-6.248;2024-01-27T04:35:09;2.95;;;0.85;;
43706;SDS011;61348;53.392;-6.248;2024-01-27T04:37:37;6.00;;;0.65;;
43706;SDS011;61348;53.392;-6.248;2024-01-27T04:40:05;3.05;;;1.50;;
43706;SDS011;61348;53.392;-6.248;2024-01-27T04:42:33;4.20;;;0.90;;
43706;SDS011;61348;53.392;-6.248;2024-01-27T04:45:01;5.45;;;0.63;;
43706;SDS011;61348;53.392;-6.248;2024-01-27T04:47:30;1.88;;;0.45;;
43706;SDS011;61348;53.392;-6.248;2024-01-27T04:49:57;2.70;;;0.75;;
43706;SDS011;61348;53.392;-6.248;2024-01-27T04:52:25;3.47;;;1.17;;
43706;SDS011;61348;53.392;-6.248;2024-01-27T04:54:53;2.47;;;0.40;;
43706;SDS011;61348;53.392;-6.248;2024-01-27T04:57:20;1.98;;;0.47;;
43706;SDS011;61348;53.392;-6.248;2024-01-27T04:59:47;4.38;;;1.45;;
43706;SDS011;61348;53.392;-6.248;2024-01-27T05:02:15;11.45;;;2.10;;
43706;SDS011;61348;53.392;-6.248;2024-01-27T05:04:42;3.75;;;0.85;;
43706;SDS011;61348;53.392;-6.248;2024-01-27T05:07:10;4.20;;;0.90;;
43706;SDS011;61348;53.392;-6.248;2024-01-27T05:09:37;2.72;;;0.82;;
43706;SDS011;61348;53.392;-6.248;2024-01-27T05:12:05;5.40;;;1.23;;
43706;SDS011;61348;53.392;-6.248;2024-01-27T05:14:32;7.20;;;0.90;;
43706;SDS011;61348;53.392;-6.248;2024-01-27T05:16:59;1.50;;;0.57;;
43706;SDS011;61348;53.392;-6.248;2024-01-27T05:19:27;8.93;;;0.65;;
43706;SDS011;61348;53.392;-6.248;2024-01-27T05:21:54;10.68;;;1.05;;
43706;SDS011;61348;53.392;-6.248;2024-01-27T05:24:21;2.45;;;0.63;;
43706;SDS011;61348;53.392;-6.248;2024-01-27T05:26:49;4.13;;;0.80;;
43706;SDS011;61348;53.392;-6.248;2024-01-27T05:29:16;2.45;;;0.85;;
43706;SDS011;61348;53.392;-6.248;2024-01-27T05:31:44;2.25;;;0.60;;
43706;SDS011;61348;53.392;-6.248;2024-01-27T05:34:11;4.80;;;0.70;;
43706;SDS011;61348;53.392;-6.248;2024-01-27T05:36:39;3.25;;;0.75;;
43706;SDS011;61348;53.392;-6.248;2024-01-27T05:39:06;3.92;;;1.55;;
43706;SDS011;61348;53.392;-6.248;2024-01-27T05:41:33;8.45;;;0.73;;
43706;SDS011;61348;53.392;-6.248;2024-01-27T05:44:01;6.32;;;1.25;;
43706;SDS011;61348;53.392;-6.248;2024-01-27T05:46:28;2.70;;;1.05;;
43706;SDS011;61348;53.392;-6.248;2024-01-27T05:48:56;6.05;;;1.15;;
43706;SDS011;61348;53.392;-6.248;2024-01-27T05:51:28;2.65;;;0.68;;
43706;SDS011;61348;53.392;-6.248;2024-01-27T05:53:57;6.20;;;0.95;;
43706;SDS011;61348;53.392;-6.248;2024-01-27T05:56:24;7.35;;;1.13;;
43706;SDS011;61348;53.392;-6.248;2024-01-27T05:58:52;6.78;;;1.10;;
43706;SDS011;61348;53.392;-6.248;2024-01-27T06:01:19;9.52;;;1.13;;
43706;SDS011;61348;53.392;-6.248;2024-01-27T06:03:47;5.90;;;0.85;;
43706;SDS011;61348;53.392;-6.248;2024-01-27T06:06:15;7.53;;;2.25;;
43706;SDS011;61348;53.392;-6.248;2024-01-27T06:08:42;6.88;;;2.40;;
43706;SDS011;61348;53.392;-6.248;2024-01-27T06:11:09;7.60;;;1.20;;
43706;SDS011;61348;53.392;-6.248;2024-01-27T06:13:37;6.18;;;0.80;;
43706;SDS011;61348;53.392;-6.248;2024-01-27T06:16:06;6.70;;;1.05;;
43706;SDS011;61348;53.392;-6.248;2024-01-27T06:18:36;16.15;;;2.58;;
43706;SDS011;61348;53.392;-6.248;2024-01-27T06:21:05;4.20;;;0.93;;
43706;SDS011;61348;53.392;-6.248;2024-01-27T06:23:33;11.60;;;1.13;;
43706;SDS011;61348;53.392;-6.248;2024-01-27T06:26:06;11.50;;;2.10;;
43706;SDS011;61348;53.392;-6.248;2024-01-27T06:28:34;5.82;;;0.90;;
43706;SDS011;61348;53.392;-6.248;2024-01-27T06:31:05;6.13;;;1.33;;
43706;SDS011;61348;53.392;-6.248;2024-01-27T06:33:32;3.67;;;1.08;;
43706;SDS011;61348;53.392;-6.248;2024-01-27T06:36:01;35.42;;;4.45;;
43706;SDS011;61348;53.392;-6.248;2024-01-27T06:38:29;6.57;;;1.00;;
43706;SDS011;61348;53.392;-6.248;2024-01-27T06:40:58;12.82;;;3.00;;
43706;SDS011;61348;53.392;-6.248;2024-01-27T06:43:25;7.82;;;0.90;;
43706;SDS011;61348;53.392;-6.248;2024-01-27T06:45:53;13.02;;;1.58;;
43706;SDS011;61348;53.392;-6.248;2024-01-27T06:48:21;6.80;;;1.20;;
43706;SDS011;61348;53.392;-6.248;2024-01-27T06:50:49;6.82;;;1.00;;
43706;SDS011;61348;53.392;-6.248;2024-01-27T06:53:18;7.50;;;1.58;;
43706;SDS011;61348;53.392;-6.248;2024-01-27T06:55:45;7.93;;;1.25;;
43706;SDS011;61348;53.392;-6.248;2024-01-27T06:58:13;5.50;;;0.77;;
43706;SDS011;61348;53.392;-6.248;2024-01-27T07:00:40;9.05;;;1.50;;
43706;SDS011;61348;53.392;-6.248;2024-01-27T07:03:08;2.92;;;0.80;;
43706;SDS011;61348;53.392;-6.248;2024-01-27T07:05:40;6.97;;;1.27;;
43706;SDS011;61348;53.392;-6.248;2024-01-27T07:08:08;6.80;;;1.48;;
43706;SDS011;61348;53.392;-6.248;2024-01-27T07:10:36;6.60;;;1.48;;
43706;SDS011;61348;53.392;-6.248;2024-01-27T07:13:03;8.68;;;1.40;;
43706;SDS011;61348;53.392;-6.248;2024-01-27T07:15:33;5.70;;;1.65;;
43706;SDS011;61348;53.392;-6.248;2024-01-27T07:18:00;8.73;;;1.20;;
43706;SDS011;61348;53.392;-6.248;2024-01-27T07:20:28;11.95;;;1.20;;
43706;SDS011;61348;53.392;-6.248;2024-01-27T07:22:56;5.93;;;1.08;;
43706;SDS011;61348;53.392;-6.248;2024-01-27T07:25:23;9.25;;;1.05;;
43706;SDS011;61348;53.392;-6.248;2024-01-27T07:27:50;6.93;;;1.67;;
43706;SDS011;61348;53.392;-6.248;2024-01-27T07:30:18;8.55;;;2.33;;
43706;SDS011;61348;53.392;-6.248;2024-01-27T07:32:46;18.25;;;5.30;;
43706;SDS011;61348;53.392;-6.248;2024-01-27T07:35:13;6.25;;;0.90;;
43706;SDS011;61348;53.392;-6.248;2024-01-27T07:37:41;7.97;;;2.00;;
43706;SDS011;61348;53.392;-6.248;2024-01-27T07:40:10;10.88;;;2.00;;
43706;SDS011;61348;53.392;-6.248;2024-01-27T07:42:37;4.75;;;1.55;;
43706;SDS011;61348;53.392;-6.248;2024-01-27T07:45:05;3.72;;;1.50;;
43706;SDS011;61348;53.392;-6.248;2024-01-27T07:47:33;6.80;;;2.95;;
43706;SDS011;61348;53.392;-6.248;2024-01-27T07:50:00;11.43;;;2.28;;
43706;SDS011;61348;53.392;-6.248;2024-01-27T07:52:27;3.50;;;1.08;;
43706;SDS011;61348;53.392;-6.248;2024-01-27T07:54:55;5.22;;;1.35;;
43706;SDS011;61348;53.392;-6.248;2024-01-27T07:57:22;8.75;;;2.17;;
43706;SDS011;61348;53.392;-6.248;2024-01-27T07:59:49;8.23;;;1.67;;
43706;SDS011;61348;53.392;-6.248;2024-01-27T08:02:17;7.18;;;1.17;;
43706;SDS011;61348;53.392;-6.248;2024-01-27T08:04:44;3.53;;;0.98;;
43706;SDS011;61348;53.392;-6.248;2024-01-27T08:07:11;4.07;;;1.35;;
43706;SDS011;61348;53.392;-6.248;2024-01-27T08:09:41;7.10;;;1.48;;
43706;SDS011;61348;53.392;-6.248;2024-01-27T08:12:09;7.93;;;2.05;;
43706;SDS011;61348;53.392;-6.248;2024-01-27T08:14:40;8.68;;;1.35;;
43706;SDS011;61348;53.392;-6.248;2024-01-27T08:17:17;13.45;;;2.88;;
43706;SDS011;61348;53.392;-6.248;2024-01-27T08:19:45;4.60;;;1.25;;
43706;SDS011;61348;53.392;-6.248;2024-01-27T08:22:15;3.92;;;1.38;;
43706;SDS011;61348;53.392;-6.248;2024-01-27T08:24:46;8.25;;;2.22;;
43706;SDS011;61348;53.392;-6.248;2024-01-27T08:27:13;12.40;;;2.42;;
43706;SDS011;61348;53.392;-6.248;2024-01-27T08:29:41;10.05;;;2.42;;
43706;SDS011;61348;53.392;-6.248;2024-01-27T08:32:08;12.15;;;2.80;;
43706;SDS011;61348;53.392;-6.248;2024-01-27T08:34:39;6.65;;;2.97;;
43706;SDS011;61348;53.392;-6.248;2024-01-27T08:37:19;6.50;;;1.33;;
43706;SDS011;61348;53.392;-6.248;2024-01-27T08:39:47;10.95;;;1.92;;
43706;SDS011;61348;53.392;-6.248;2024-01-27T08:42:15;6.47;;;1.80;;
43706;SDS011;61348;53.392;-6.248;2024-01-27T08:44:42;6.68;;;2.08;;
43706;SDS011;61348;53.392;-6.248;2024-01-27T08:47:10;7.72;;;1.40;;
43706;SDS011;61348;53.392;-6.248;2024-01-27T08:49:37;13.00;;;1.50;;
43706;SDS011;61348;53.392;-6.248;2024-01-27T08:52:05;7.72;;;1.92;;
43706;SDS011;61348;53.392;-6.248;2024-01-27T08:54:33;16.83;;;2.40;;
43706;SDS011;61348;53.392;-6.248;2024-01-27T08:57:00;6.85;;;1.77;;
43706;SDS011;61348;53.392;-6.248;2024-01-27T08:59:28;18.00;;;2.95;;
43706;SDS011;61348;53.392;-6.248;2024-01-27T09:01:55;8.15;;;2.08;;
43706;SDS011;61348;53.392;-6.248;2024-01-27T09:04:23;7.88;;;1.40;;
43706;SDS011;61348;53.392;-6.248;2024-01-27T09:06:50;7.38;;;1.55;;
43706;SDS011;61348;53.392;-6.248;2024-01-27T09:09:17;8.80;;;1.63;;
43706;SDS011;61348;53.392;-6.248;2024-01-27T09:11:45;10.48;;;1.65;;
43706;SDS011;61348;53.392;-6.248;2024-01-27T09:14:13;10.32;;;1.58;;
43706;SDS011;61348;53.392;-6.248;2024-01-27T09:16:41;11.45;;;1.52;;
43706;SDS011;61348;53.392;-6.248;2024-01-27T09:19:08;12.73;;;2.05;;
43706;SDS011;61348;53.392;-6.248;2024-01-27T09:21:36;13.73;;;2.05;;
43706;SDS011;61348;53.392;-6.248;2024-01-27T09:24:04;10.30;;;1.70;;
43706;SDS011;61348;53.392;-6.248;2024-01-27T09:26:32;13.40;;;1.83;;
43706;SDS011;61348;53.392;-6.248;2024-01-27T09:29:00;8.50;;;1.80;;
43706;SDS011;61348;53.392;-6.248;2024-01-27T09:31:27;15.27;;;2.25;;
43706;SDS011;61348;53.392;-6.248;2024-01-27T09:33:55;9.63;;;2.38;;
43706;SDS011;61348;53.392;-6.248;2024-01-27T09:36:23;11.63;;;2.63;;
43706;SDS011;61348;53.392;-6.248;2024-01-27T09:38:50;5.88;;;1.70;;
43706;SDS011;61348;53.392;-6.248;2024-01-27T09:41:19;7.60;;;2.85;;
43706;SDS011;61348;53.392;-6.248;2024-01-27T09:43:47;11.40;;;2.90;;
43706;SDS011;61348;53.392;-6.248;2024-01-27T09:46:15;10.70;;;1.85;;
43706;SDS011;61348;53.392;-6.248;2024-01-27T09:48:43;13.27;;;2.15;;
43706;SDS011;61348;53.392;-6.248;2024-01-27T09:51:14;14.82;;;1.92;;
43706;SDS011;61348;53.392;-6.248;2024-01-27T09:53:41;21.40;;;3.22;;
43706;SDS011;61348;53.392;-6.248;2024-01-27T09:56:09;9.93;;;1.90;;
43706;SDS011;61348;53.392;-6.248;2024-01-27T09:58:38;16.17;;;3.67;;
43706;SDS011;61348;53.392;-6.248;2024-01-27T10:01:06;7.28;;;1.67;;
43706;SDS011;61348;53.392;-6.248;2024-01-27T10:03:35;18.70;;;2.75;;
43706;SDS011;61348;53.392;-6.248;2024-01-27T10:06:08;13.38;;;2.50;;
43706;SDS011;61348;53.392;-6.248;2024-01-27T10:08:37;12.30;;;2.00;;
43706;SDS011;61348;53.392;-6.248;2024-01-27T10:11:07;15.00;;;3.65;;
43706;SDS011;61348;53.392;-6.248;2024-01-27T10:13:39;12.50;;;3.53;;
43706;SDS011;61348;53.392;-6.248;2024-01-27T10:16:08;19.65;;;4.00;;
43706;SDS011;61348;53.392;-6.248;2024-01-27T10:18:36;9.85;;;2.40;;
43706;SDS011;61348;53.392;-6.248;2024-01-27T10:21:17;13.68;;;3.47;;
43706;SDS011;61348;53.392;-6.248;2024-01-27T10:23:47;8.88;;;2.50;;
43706;SDS011;61348;53.392;-6.248;2024-01-27T10:26:14;13.20;;;2.22;;
43706;SDS011;61348;53.392;-6.248;2024-01-27T10:28:41;12.52;;;2.90;;
43706;SDS011;61348;53.392;-6.248;2024-01-27T10:31:09;13.85;;;2.13;;
43706;SDS011;61348;53.392;-6.248;2024-01-27T10:33:38;11.45;;;2.47;;
43706;SDS011;61348;53.392;-6.248;2024-01-27T10:36:06;11.68;;;2.63;;
43706;SDS011;61348;53.392;-6.248;2024-01-27T10:38:34;11.65;;;2.47;;
43706;SDS011;61348;53.392;-6.248;2024-01-27T10:43:39;12.38;;;1.75;;
43706;SDS011;61348;53.392;-6.248;2024-01-27T10:46:07;10.55;;;1.92;;
43706;SDS011;61348;53.392;-6.248;2024-01-27T10:48:35;12.73;;;2.92;;
43706;SDS011;61348;53.392;-6.248;2024-01-27T10:51:09;13.33;;;1.80;;
43706;SDS011;61348;53.392;-6.248;2024-01-27T10:53:37;13.23;;;2.25;;
43706;SDS011;61348;53.392;-6.248;2024-01-27T10:56:08;13.82;;;2.55;;
43706;SDS011;61348;53.392;-6.248;2024-01-27T10:58:37;11.18;;;2.47;;
43706;SDS011;61348;53.392;-6.248;2024-01-27T11:01:10;11.98;;;2.10;;
43706;SDS011;61348;53.392;-6.248;2024-01-27T11:03:39;14.48;;;2.17;;
43706;SDS011;61348;53.392;-6.248;2024-01-27T11:06:08;13.70;;;2.47;;
43706;SDS011;61348;53.392;-6.248;2024-01-27T11:08:36;27.73;;;3.53;;
43706;SDS011;61348;53.392;-6.248;2024-01-27T11:11:10;15.27;;;2.33;;
43706;SDS011;61348;53.392;-6.248;2024-01-27T11:13:38;15.73;;;3.75;;
43706;SDS011;61348;53.392;-6.248;2024-01-27T11:16:13;18.48;;;4.90;;
43706;SDS011;61348;53.392;-6.248;2024-01-27T11:18:43;8.02;;;2.15;;
43706;SDS011;61348;53.392;-6.248;2024-01-27T11:21:14;15.23;;;2.42;;
43706;SDS011;61348;53.392;-6.248;2024-01-27T11:23:45;20.85;;;3.10;;
43706;SDS011;61348;53.392;-6.248;2024-01-27T11:26:17;13.38;;;2.55;;
43706;SDS011;61348;53.392;-6.248;2024-01-27T11:28:47;12.07;;;2.28;;
43706;SDS011;61348;53.392;-6.248;2024-01-27T11:31:17;15.93;;;2.38;;
43706;SDS011;61348;53.392;-6.248;2024-01-27T11:33:50;11.30;;;2.72;;
43706;SDS011;61348;53.392;-6.248;2024-01-27T11:36:23;12.65;;;2.63;;
43706;SDS011;61348;53.392;-6.248;2024-01-27T11:38:52;20.60;;;3.15;;
43706;SDS011;61348;53.392;-6.248;2024-01-27T11:41:24;15.50;;;3.53;;
43706;SDS011;61348;53.392;-6.248;2024-01-27T11:43:55;13.65;;;3.50;;
43706;SDS011;61348;53.392;-6.248;2024-01-27T11:46:25;18.17;;;4.82;;
43706;SDS011;61348;53.392;-6.248;2024-01-27T11:48:53;19.15;;;4.43;;
43706;SDS011;61348;53.392;-6.248;2024-01-27T11:51:20;13.82;;;2.80;;
43706;SDS011;61348;53.392;-6.248;2024-01-27T11:53:50;13.05;;;2.15;;
43706;SDS011;61348;53.392;-6.248;2024-01-27T11:56:18;16.75;;;3.78;;
43706;SDS011;61348;53.392;-6.248;2024-01-27T11:58:45;19.95;;;2.97;;
43706;SDS011;61348;53.392;-6.248;2024-01-27T12:01:14;17.98;;;3.15;;
43706;SDS011;61348;53.392;-6.248;2024-01-27T12:03:42;16.80;;;2.97;;
43706;SDS011;61348;53.392;-6.248;2024-01-27T12:06:12;6.40;;;1.98;;
43706;SDS011;61348;53.392;-6.248;2024-01-27T12:08:41;16.02;;;3.33;;
43706;SDS011;61348;53.392;-6.248;2024-01-27T12:11:15;15.75;;;2.40;;
43706;SDS011;61348;53.392;-6.248;2024-01-27T12:13:48;17.02;;;3.10;;
43706;SDS011;61348;53.392;-6.248;2024-01-27T12:16:15;17.70;;;2.60;;
43706;SDS011;61348;53.392;-6.248;2024-01-27T12:18:46;17.52;;;4.38;;
43706;SDS011;61348;53.392;-6.248;2024-01-27T12:21:18;14.38;;;5.00;;
43706;SDS011;61348;53.392;-6.248;2024-01-27T12:23:52;13.48;;;2.67;;
43706;SDS011;61348;53.392;-6.248;2024-01-27T12:26:21;14.18;;;2.75;;
43706;SDS011;61348;53.392;-6.248;2024-01-27T12:28:53;8.63;;;2.42;;
43706;SDS011;61348;53.392;-6.248;2024-01-27T12:31:23;22.55;;;3.22;;
43706;SDS011;61348;53.392;-6.248;2024-01-27T12:33:51;17.48;;;4.93;;
43706;SDS011;61348;53.392;-6.248;2024-01-27T12:36:20;15.73;;;3.03;;
43706;SDS011;61348;53.392;-6.248;2024-01-27T12:38:53;11.50;;;3.38;;
43706;SDS011;61348;53.392;-6.248;2024-01-27T12:41:21;18.48;;;3.47;;
43706;SDS011;61348;53.392;-6.248;2024-01-27T12:43:48;17.90;;;4.72;;
43706;SDS011;61348;53.392;-6.248;2024-01-27T12:46:16;17.13;;;3.70;;
43706;SDS011;61348;53.392;-6.248;2024-01-27T12:48:44;16.95;;;2.63;;
43706;SDS011;61348;53.392;-6.248;2024-01-27T12:51:12;7.65;;;1.73;;
43706;SDS011;61348;53.392;-6.248;2024-01-27T12:53:41;15.73;;;3.08;;
43706;SDS011;61348;53.392;-6.248;2024-01-27T12:56:11;13.23;;;2.55;;
43706;SDS011;61348;53.392;-6.248;2024-01-27T12:58:39;10.73;;;3.13;;
43706;SDS011;61348;53.392;-6.248;2024-01-27T13:01:08;14.98;;;2.92;;
43706;SDS011;61348;53.392;-6.248;2024-01-27T13:03:36;11.38;;;2.13;;
43706;SDS011;61348;53.392;-6.248;2024-01-27T13:06:05;10.55;;;2.83;;
43706;SDS011;61348;53.392;-6.248;2024-01-27T13:08:33;17.35;;;2.42;;
43706;SDS011;61348;53.392;-6.248;2024-01-27T13:11:01;17.00;;;3.00;;
43706;SDS011;61348;53.392;-6.248;2024-01-27T13:13:29;10.05;;;2.42;;
43706;SDS011;61348;53.392;-6.248;2024-01-27T13:15:57;17.27;;;2.70;;
43706;SDS011;61348;53.392;-6.248;2024-01-27T13:18:24;12.30;;;2.55;;
43706;SDS011;61348;53.392;-6.248;2024-01-27T13:20:51;14.30;;;3.30;;
43706;SDS011;61348;53.392;-6.248;2024-01-27T13:23:19;16.20;;;2.85;;
43706;SDS011;61348;53.392;-6.248;2024-01-27T13:25:46;9.93;;;2.47;;
43706;SDS011;61348;53.392;-6.248;2024-01-27T13:28:34;15.38;;;3.72;;
43706;SDS011;61348;53.392;-6.248;2024-01-27T13:31:01;14.18;;;2.97;;
43706;SDS011;61348;53.392;-6.248;2024-01-27T13:33:28;8.48;;;2.33;;
43706;SDS011;61348;53.392;-6.248;2024-01-27T13:35:56;8.23;;;2.33;;
43706;SDS011;61348;53.392;-6.248;2024-01-27T13:38:24;16.50;;;3.53;;
43706;SDS011;61348;53.392;-6.248;2024-01-27T13:40:52;11.15;;;2.40;;
43706;SDS011;61348;53.392;-6.248;2024-01-27T13:43:20;18.73;;;3.50;;
43706;SDS011;61348;53.392;-6.248;2024-01-27T13:45:47;22.50;;;6.03;;
43706;SDS011;61348;53.392;-6.248;2024-01-27T13:48:15;12.80;;;2.42;;
43706;SDS011;61348;53.392;-6.248;2024-01-27T13:50:43;19.17;;;4.18;;
43706;SDS011;61348;53.392;-6.248;2024-01-27T13:53:10;15.95;;;4.18;;
43706;SDS011;61348;53.392;-6.248;2024-01-27T13:55:38;17.75;;;4.85;;
43706;SDS011;61348;53.392;-6.248;2024-01-27T13:58:07;18.55;;;3.13;;
43706;SDS011;61348;53.392;-6.248;2024-01-27T14:00:34;24.75;;;3.92;;
43706;SDS011;61348;53.392;-6.248;2024-01-27T14:03:02;16.20;;;3.35;;
43706;SDS011;61348;53.392;-6.248;2024-01-27T14:05:30;17.05;;;3.40;;
43706;SDS011;61348;53.392;-6.248;2024-01-27T14:07:57;15.00;;;2.92;;
43706;SDS011;61348;53.392;-6.248;2024-01-27T14:10:26;13.05;;;3.00;;
43706;SDS011;61348;53.392;-6.248;2024-01-27T14:12:53;15.18;;;4.47;;
43706;SDS011;61348;53.392;-6.248;2024-01-27T14:15:20;13.98;;;3.63;;
43706;SDS011;61348;53.392;-6.248;2024-01-27T14:17:48;15.20;;;2.80;;
43706;SDS011;61348;53.392;-6.248;2024-01-27T14:20:16;18.58;;;3.03;;
43706;SDS011;61348;53.392;-6.248;2024-01-27T14:22:43;10.50;;;3.05;;
43706;SDS011;61348;53.392;-6.248;2024-01-27T14:25:11;15.85;;;3.33;;
43706;SDS011;61348;53.392;-6.248;2024-01-27T14:27:38;15.38;;;3.78;;
43706;SDS011;61348;53.392;-6.248;2024-01-27T14:30:06;9.23;;;2.88;;
43706;SDS011;61348;53.392;-6.248;2024-01-27T14:32:34;18.30;;;3.35;;
43706;SDS011;61348;53.392;-6.248;2024-01-27T14:35:02;9.88;;;2.55;;
43706;SDS011;61348;53.392;-6.248;2024-01-27T14:37:32;10.95;;;3.67;;